sensor_id;sensor_type;location;lat;lon;timestamp;P1;durP1;ratioP1;P2;durP2;ratioP2
20832;SDS011;56075;51.264;7.150;2023-02-24T00:00:19;26.17;;;6.53;;
20832;SDS011;56075;51.264;7.150;2023-02-24T00:03:07;29.80;;;7.23;;
20832;SDS011;56075;51.264;7.150;2023-02-24T00:05:40;39.90;;;8.17;;
20832;SDS011;56075;51.264;7.150;2023-02-24T00:08:19;33.73;;;7.20;;
20832;SDS011;56075;51.264;7.150;2023-02-24T00:10:50;46.13;;;9.70;;
20832;SDS011;56075;51.264;7.150;2023-02-24T00:13:22;24.67;;;7.43;;
20832;SDS011;56075;51.264;7.150;2023-02-24T00:15:59;35.23;;;8.43;;
20832;SDS011;56075;51.264;7.150;2023-02-24T00:18:31;38.10;;;9.23;;
20832;SDS011;56075;51.264;7.150;2023-02-24T00:21:07;25.23;;;7.17;;
20832;SDS011;56075;51.264;7.150;2023-02-24T00:23:44;37.37;;;9.13;;
20832;SDS011;56075;51.264;7.150;2023-02-24T00:26:16;30.30;;;8.57;;
20832;SDS011;56075;51.264;7.150;2023-02-24T00:28:47;33.80;;;8.53;;
20832;SDS011;56075;51.264;7.150;2023-02-24T00:31:19;21.70;;;6.00;;
20832;SDS011;56075;51.264;7.150;2023-02-24T00:33:53;21.73;;;6.70;;
20832;SDS011;56075;51.264;7.150;2023-02-24T00:36:27;27.20;;;7.47;;
20832;SDS011;56075;51.264;7.150;2023-02-24T00:39:01;29.67;;;7.73;;
20832;SDS011;56075;51.264;7.150;2023-02-24T00:41:40;24.00;;;9.13;;
20832;SDS011;56075;51.264;7.150;2023-02-24T00:44:13;37.40;;;11.17;;
20832;SDS011;56075;51.264;7.150;2023-02-24T00:46:45;44.37;;;11.40;;
20832;SDS011;56075;51.264;7.150;2023-02-24T00:49:17;38.17;;;10.80;;
20832;SDS011;56075;51.264;7.150;2023-02-24T00:51:50;46.77;;;12.90;;
20832;SDS011;56075;51.264;7.150;2023-02-24T00:54:23;37.93;;;11.83;;
20832;SDS011;56075;51.264;7.150;2023-02-24T00:56:57;30.97;;;9.10;;
20832;SDS011;56075;51.264;7.150;2023-02-24T00:59:30;34.73;;;10.30;;
20832;SDS011;56075;51.264;7.150;2023-02-24T01:02:02;41.20;;;11.40;;
20832;SDS011;56075;51.264;7.150;2023-02-24T01:04:34;36.97;;;11.80;;
20832;SDS011;56075;51.264;7.150;2023-02-24T01:07:07;24.00;;;7.97;;
20832;SDS011;56075;51.264;7.150;2023-02-24T01:09:40;40.50;;;12.47;;
20832;SDS011;56075;51.264;7.150;2023-02-24T01:12:13;47.63;;;13.07;;
20832;SDS011;56075;51.264;7.150;2023-02-24T01:15:07;43.27;;;13.53;;
20832;SDS011;56075;51.264;7.150;2023-02-24T01:17:39;36.57;;;11.90;;
20832;SDS011;56075;51.264;7.150;2023-02-24T01:20:11;38.10;;;10.90;;
20832;SDS011;56075;51.264;7.150;2023-02-24T01:22:49;37.47;;;11.67;;
20832;SDS011;56075;51.264;7.150;2023-02-24T01:25:27;46.83;;;12.97;;
20832;SDS011;56075;51.264;7.150;2023-02-24T01:28:00;49.37;;;13.07;;
20832;SDS011;56075;51.264;7.150;2023-02-24T01:30:32;46.07;;;13.20;;
20832;SDS011;56075;51.264;7.150;2023-02-24T01:33:03;41.47;;;12.83;;
20832;SDS011;56075;51.264;7.150;2023-02-24T01:35:37;35.97;;;11.77;;
20832;SDS011;56075;51.264;7.150;2023-02-24T01:38:08;40.27;;;12.43;;
20832;SDS011;56075;51.264;7.150;2023-02-24T01:40:40;41.10;;;12.53;;
20832;SDS011;56075;51.264;7.150;2023-02-24T01:43:12;27.00;;;9.87;;
20832;SDS011;56075;51.264;7.150;2023-02-24T01:45:44;25.10;;;7.03;;
20832;SDS011;56075;51.264;7.150;2023-02-24T01:48:16;41.80;;;11.53;;
20832;SDS011;56075;51.264;7.150;2023-02-24T01:50:47;33.43;;;10.73;;
20832;SDS011;56075;51.264;7.150;2023-02-24T01:53:20;29.20;;;9.03;;
20832;SDS011;56075;51.264;7.150;2023-02-24T01:55:51;38.20;;;11.13;;
20832;SDS011;56075;51.264;7.150;2023-02-24T01:58:24;18.43;;;6.60;;
20832;SDS011;56075;51.264;7.150;2023-02-24T02:00:58;39.23;;;10.83;;
20832;SDS011;56075;51.264;7.150;2023-02-24T02:03:31;37.03;;;11.07;;
20832;SDS011;56075;51.264;7.150;2023-02-24T02:06:07;25.40;;;8.57;;
20832;SDS011;56075;51.264;7.150;2023-02-24T02:08:41;36.93;;;10.27;;
20832;SDS011;56075;51.264;7.150;2023-02-24T02:11:14;34.30;;;10.80;;
20832;SDS011;56075;51.264;7.150;2023-02-24T02:13:52;27.20;;;7.50;;
20832;SDS011;56075;51.264;7.150;2023-02-24T02:16:40;34.47;;;9.73;;
20832;SDS011;56075;51.264;7.150;2023-02-24T02:25:27;38.33;;;10.43;;
20832;SDS011;56075;51.264;7.150;2023-02-24T02:28:41;31.23;;;8.90;;
20832;SDS011;56075;51.264;7.150;2023-02-24T02:33:54;32.57;;;7.57;;
20832;SDS011;56075;51.264;7.150;2023-02-24T02:44:38;22.53;;;6.00;;
20832;SDS011;56075;51.264;7.150;2023-02-24T02:47:12;18.03;;;4.83;;
20832;SDS011;56075;51.264;7.150;2023-02-24T02:49:51;20.50;;;4.40;;
20832;SDS011;56075;51.264;7.150;2023-02-24T02:52:28;12.27;;;3.43;;
20832;SDS011;56075;51.264;7.150;2023-02-24T02:55:04;13.87;;;2.33;;
20832;SDS011;56075;51.264;7.150;2023-02-24T02:57:38;16.33;;;4.43;;
20832;SDS011;56075;51.264;7.150;2023-02-24T03:00:11;12.87;;;3.17;;
20832;SDS011;56075;51.264;7.150;2023-02-24T03:02:45;19.57;;;3.63;;
20832;SDS011;56075;51.264;7.150;2023-02-24T03:05:19;7.97;;;2.23;;
20832;SDS011;56075;51.264;7.150;2023-02-24T03:07:55;32.27;;;5.17;;
20832;SDS011;56075;51.264;7.150;2023-02-24T03:10:28;21.80;;;3.73;;
20832;SDS011;56075;51.264;7.150;2023-02-24T03:13:03;20.90;;;3.90;;
20832;SDS011;56075;51.264;7.150;2023-02-24T03:15:37;14.20;;;3.07;;
20832;SDS011;56075;51.264;7.150;2023-02-24T03:18:17;13.93;;;3.23;;
20832;SDS011;56075;51.264;7.150;2023-02-24T03:20:53;11.77;;;2.60;;
20832;SDS011;56075;51.264;7.150;2023-02-24T03:23:27;18.93;;;3.50;;
20832;SDS011;56075;51.264;7.150;2023-02-24T03:26:12;15.33;;;3.07;;
20832;SDS011;56075;51.264;7.150;2023-02-24T03:28:52;10.90;;;2.67;;
20832;SDS011;56075;51.264;7.150;2023-02-24T03:31:26;19.73;;;2.87;;
20832;SDS011;56075;51.264;7.150;2023-02-24T03:34:01;14.70;;;2.33;;
20832;SDS011;56075;51.264;7.150;2023-02-24T03:36:35;13.57;;;2.00;;
20832;SDS011;56075;51.264;7.150;2023-02-24T03:39:08;12.70;;;2.90;;
20832;SDS011;56075;51.264;7.150;2023-02-24T03:41:50;16.93;;;3.23;;
20832;SDS011;56075;51.264;7.150;2023-02-24T03:44:27;14.73;;;2.63;;
20832;SDS011;56075;51.264;7.150;2023-02-24T03:46:59;22.67;;;2.67;;
20832;SDS011;56075;51.264;7.150;2023-02-24T03:49:31;12.60;;;2.70;;
20832;SDS011;56075;51.264;7.150;2023-02-24T03:54:46;15.73;;;3.33;;
20832;SDS011;56075;51.264;7.150;2023-02-24T04:00:14;9.63;;;2.30;;
20832;SDS011;56075;51.264;7.150;2023-02-24T04:03:11;15.67;;;2.83;;
20832;SDS011;56075;51.264;7.150;2023-02-24T04:05:48;11.17;;;2.17;;
20832;SDS011;56075;51.264;7.150;2023-02-24T04:08:22;9.83;;;2.03;;
20832;SDS011;56075;51.264;7.150;2023-02-24T04:11:00;16.17;;;3.13;;
20832;SDS011;56075;51.264;7.150;2023-02-24T04:16:21;12.97;;;2.37;;
20832;SDS011;56075;51.264;7.150;2023-02-24T04:19:02;19.00;;;3.10;;
20832;SDS011;56075;51.264;7.150;2023-02-24T04:21:38;16.07;;;2.97;;
20832;SDS011;56075;51.264;7.150;2023-02-24T04:24:12;22.20;;;2.90;;
20832;SDS011;56075;51.264;7.150;2023-02-24T04:26:47;9.03;;;2.03;;
20832;SDS011;56075;51.264;7.150;2023-02-24T04:29:21;9.20;;;1.40;;
20832;SDS011;56075;51.264;7.150;2023-02-24T04:32:01;21.43;;;2.87;;
20832;SDS011;56075;51.264;7.150;2023-02-24T04:34:37;22.40;;;2.70;;
20832;SDS011;56075;51.264;7.150;2023-02-24T04:37:10;6.47;;;1.53;;
20832;SDS011;56075;51.264;7.150;2023-02-24T04:39:41;11.20;;;1.97;;
20832;SDS011;56075;51.264;7.150;2023-02-24T04:42:24;12.57;;;1.70;;
20832;SDS011;56075;51.264;7.150;2023-02-24T04:48:16;11.07;;;2.33;;
20832;SDS011;56075;51.264;7.150;2023-02-24T04:50:58;12.97;;;2.20;;
20832;SDS011;56075;51.264;7.150;2023-02-24T04:53:33;16.37;;;2.07;;
20832;SDS011;56075;51.264;7.150;2023-02-24T04:56:06;9.03;;;1.50;;
20832;SDS011;56075;51.264;7.150;2023-02-24T04:58:43;10.87;;;2.10;;
20832;SDS011;56075;51.264;7.150;2023-02-24T05:01:15;13.27;;;1.87;;
20832;SDS011;56075;51.264;7.150;2023-02-24T05:03:47;16.63;;;2.03;;
20832;SDS011;56075;51.264;7.150;2023-02-24T05:06:18;6.93;;;1.70;;
20832;SDS011;56075;51.264;7.150;2023-02-24T05:08:50;11.07;;;2.17;;
20832;SDS011;56075;51.264;7.150;2023-02-24T05:11:22;9.67;;;1.40;;
20832;SDS011;56075;51.264;7.150;2023-02-24T05:13:54;10.57;;;1.70;;
20832;SDS011;56075;51.264;7.150;2023-02-24T05:16:26;2.53;;;0.73;;
20832;SDS011;56075;51.264;7.150;2023-02-24T05:19:01;6.27;;;1.43;;
20832;SDS011;56075;51.264;7.150;2023-02-24T05:22:22;7.07;;;1.07;;
20832;SDS011;56075;51.264;7.150;2023-02-24T05:24:54;8.63;;;1.53;;
20832;SDS011;56075;51.264;7.150;2023-02-24T05:27:26;16.40;;;1.90;;
20832;SDS011;56075;51.264;7.150;2023-02-24T05:29:58;13.83;;;2.07;;
20832;SDS011;56075;51.264;7.150;2023-02-24T05:36:27;10.37;;;1.63;;
20832;SDS011;56075;51.264;7.150;2023-02-24T05:39:42;14.93;;;2.10;;
20832;SDS011;56075;51.264;7.150;2023-02-24T05:42:14;20.70;;;2.20;;
20832;SDS011;56075;51.264;7.150;2023-02-24T05:44:46;8.03;;;1.27;;
20832;SDS011;56075;51.264;7.150;2023-02-24T05:47:18;11.87;;;1.80;;
20832;SDS011;56075;51.264;7.150;2023-02-24T05:49:50;13.30;;;1.80;;
20832;SDS011;56075;51.264;7.150;2023-02-24T05:52:23;9.03;;;1.60;;
20832;SDS011;56075;51.264;7.150;2023-02-24T05:54:55;15.03;;;1.70;;
20832;SDS011;56075;51.264;7.150;2023-02-24T05:57:26;12.53;;;1.70;;
20832;SDS011;56075;51.264;7.150;2023-02-24T06:00:02;16.77;;;1.93;;
20832;SDS011;56075;51.264;7.150;2023-02-24T06:03:00;15.43;;;1.70;;
20832;SDS011;56075;51.264;7.150;2023-02-24T06:05:37;12.93;;;2.10;;
20832;SDS011;56075;51.264;7.150;2023-02-24T06:08:11;9.17;;;1.47;;
20832;SDS011;56075;51.264;7.150;2023-02-24T06:10:43;11.53;;;1.90;;
20832;SDS011;56075;51.264;7.150;2023-02-24T06:13:17;23.03;;;2.63;;
20832;SDS011;56075;51.264;7.150;2023-02-24T06:15:53;15.73;;;2.20;;
20832;SDS011;56075;51.264;7.150;2023-02-24T06:18:26;16.67;;;1.97;;
20832;SDS011;56075;51.264;7.150;2023-02-24T06:21:02;22.33;;;2.57;;
20832;SDS011;56075;51.264;7.150;2023-02-24T06:23:33;14.23;;;2.50;;
20832;SDS011;56075;51.264;7.150;2023-02-24T06:26:05;13.60;;;2.70;;
20832;SDS011;56075;51.264;7.150;2023-02-24T06:28:42;16.03;;;3.20;;
20832;SDS011;56075;51.264;7.150;2023-02-24T06:31:14;18.50;;;4.00;;
20832;SDS011;56075;51.264;7.150;2023-02-24T06:33:45;20.57;;;4.23;;
20832;SDS011;56075;51.264;7.150;2023-02-24T06:36:17;24.93;;;4.27;;
20832;SDS011;56075;51.264;7.150;2023-02-24T06:38:49;15.03;;;3.57;;
20832;SDS011;56075;51.264;7.150;2023-02-24T06:41:22;12.23;;;3.07;;
20832;SDS011;56075;51.264;7.150;2023-02-24T06:43:53;13.27;;;2.90;;
20832;SDS011;56075;51.264;7.150;2023-02-24T06:46:25;20.57;;;4.03;;
20832;SDS011;56075;51.264;7.150;2023-02-24T06:48:57;25.10;;;3.90;;
20832;SDS011;56075;51.264;7.150;2023-02-24T06:51:28;15.57;;;3.77;;
20832;SDS011;56075;51.264;7.150;2023-02-24T06:54:00;23.50;;;3.50;;
20832;SDS011;56075;51.264;7.150;2023-02-24T06:56:32;25.20;;;3.57;;
20832;SDS011;56075;51.264;7.150;2023-02-24T06:59:10;10.63;;;2.90;;
20832;SDS011;56075;51.264;7.150;2023-02-24T07:01:45;13.87;;;3.07;;
20832;SDS011;56075;51.264;7.150;2023-02-24T07:04:20;18.57;;;3.60;;
20832;SDS011;56075;51.264;7.150;2023-02-24T07:06:58;14.37;;;2.73;;
20832;SDS011;56075;51.264;7.150;2023-02-24T07:09:32;20.83;;;3.43;;
20832;SDS011;56075;51.264;7.150;2023-02-24T07:12:09;14.20;;;2.83;;
20832;SDS011;56075;51.264;7.150;2023-02-24T07:14:51;18.00;;;3.23;;
20832;SDS011;56075;51.264;7.150;2023-02-24T07:17:22;18.60;;;3.43;;
20832;SDS011;56075;51.264;7.150;2023-02-24T07:19:56;18.73;;;2.80;;
20832;SDS011;56075;51.264;7.150;2023-02-24T07:22:32;16.90;;;2.83;;
20832;SDS011;56075;51.264;7.150;2023-02-24T07:25:09;17.83;;;2.83;;
20832;SDS011;56075;51.264;7.150;2023-02-24T07:28:03;15.77;;;2.70;;
20832;SDS011;56075;51.264;7.150;2023-02-24T07:30:39;12.33;;;2.53;;
20832;SDS011;56075;51.264;7.150;2023-02-24T07:33:24;24.00;;;2.80;;
20832;SDS011;56075;51.264;7.150;2023-02-24T07:35:56;14.43;;;2.57;;
20832;SDS011;56075;51.264;7.150;2023-02-24T07:38:27;20.10;;;3.00;;
20832;SDS011;56075;51.264;7.150;2023-02-24T07:41:00;18.17;;;2.67;;
20832;SDS011;56075;51.264;7.150;2023-02-24T07:43:38;14.87;;;2.50;;
20832;SDS011;56075;51.264;7.150;2023-02-24T07:46:28;7.47;;;2.40;;
20832;SDS011;56075;51.264;7.150;2023-02-24T07:49:19;10.70;;;2.33;;
20832;SDS011;56075;51.264;7.150;2023-02-24T07:55:37;17.57;;;2.60;;
20832;SDS011;56075;51.264;7.150;2023-02-24T07:58:27;11.87;;;2.50;;
20832;SDS011;56075;51.264;7.150;2023-02-24T08:01:00;12.67;;;2.70;;
20832;SDS011;56075;51.264;7.150;2023-02-24T08:03:38;12.23;;;2.37;;
20832;SDS011;56075;51.264;7.150;2023-02-24T08:06:11;17.00;;;2.40;;
20832;SDS011;56075;51.264;7.150;2023-02-24T08:08:48;13.93;;;2.40;;
20832;SDS011;56075;51.264;7.150;2023-02-24T08:11:34;15.30;;;2.33;;
20832;SDS011;56075;51.264;7.150;2023-02-24T08:14:12;8.60;;;2.20;;
20832;SDS011;56075;51.264;7.150;2023-02-24T08:16:55;13.50;;;2.27;;
20832;SDS011;56075;51.264;7.150;2023-02-24T08:19:32;11.43;;;2.30;;
20832;SDS011;56075;51.264;7.150;2023-02-24T08:22:10;14.40;;;2.47;;
20832;SDS011;56075;51.264;7.150;2023-02-24T08:24:57;12.20;;;2.27;;
20832;SDS011;56075;51.264;7.150;2023-02-24T08:28:17;10.20;;;2.10;;
20832;SDS011;56075;51.264;7.150;2023-02-24T08:30:51;7.43;;;2.10;;
20832;SDS011;56075;51.264;7.150;2023-02-24T08:33:23;16.43;;;2.27;;
20832;SDS011;56075;51.264;7.150;2023-02-24T08:35:59;11.30;;;2.20;;
20832;SDS011;56075;51.264;7.150;2023-02-24T08:38:34;18.80;;;2.70;;
20832;SDS011;56075;51.264;7.150;2023-02-24T08:41:10;17.23;;;2.60;;
20832;SDS011;56075;51.264;7.150;2023-02-24T08:43:47;11.87;;;2.43;;
20832;SDS011;56075;51.264;7.150;2023-02-24T08:46:22;14.60;;;2.70;;
20832;SDS011;56075;51.264;7.150;2023-02-24T08:49:09;11.57;;;2.63;;
20832;SDS011;56075;51.264;7.150;2023-02-24T08:51:43;19.03;;;2.90;;
20832;SDS011;56075;51.264;7.150;2023-02-24T08:54:22;11.33;;;3.00;;
20832;SDS011;56075;51.264;7.150;2023-02-24T08:57:02;12.17;;;2.93;;
20832;SDS011;56075;51.264;7.150;2023-02-24T08:59:44;13.17;;;3.30;;
20832;SDS011;56075;51.264;7.150;2023-02-24T09:02:20;16.93;;;2.97;;
20832;SDS011;56075;51.264;7.150;2023-02-24T09:04:59;7.40;;;2.87;;
20832;SDS011;56075;51.264;7.150;2023-02-24T09:07:52;13.23;;;3.07;;
20832;SDS011;56075;51.264;7.150;2023-02-24T09:10:29;17.17;;;2.90;;
20832;SDS011;56075;51.264;7.150;2023-02-24T09:13:00;18.97;;;2.90;;
20832;SDS011;56075;51.264;7.150;2023-02-24T09:15:41;7.47;;;2.50;;
20832;SDS011;56075;51.264;7.150;2023-02-24T09:18:17;11.17;;;2.80;;
20832;SDS011;56075;51.264;7.150;2023-02-24T09:21:11;15.30;;;2.70;;
20832;SDS011;56075;51.264;7.150;2023-02-24T09:24:09;13.77;;;2.60;;
20832;SDS011;56075;51.264;7.150;2023-02-24T09:26:47;12.40;;;2.70;;
20832;SDS011;56075;51.264;7.150;2023-02-24T09:29:47;13.77;;;2.70;;
20832;SDS011;56075;51.264;7.150;2023-02-24T09:32:28;11.03;;;2.60;;
20832;SDS011;56075;51.264;7.150;2023-02-24T09:35:04;12.13;;;2.90;;
20832;SDS011;56075;51.264;7.150;2023-02-24T09:38:02;18.87;;;3.10;;
20832;SDS011;56075;51.264;7.150;2023-02-24T09:40:44;18.03;;;3.10;;
20832;SDS011;56075;51.264;7.150;2023-02-24T09:43:24;11.57;;;3.33;;
20832;SDS011;56075;51.264;7.150;2023-02-24T09:46:06;19.63;;;2.90;;
20832;SDS011;56075;51.264;7.150;2023-02-24T09:48:47;16.10;;;2.60;;
20832;SDS011;56075;51.264;7.150;2023-02-24T09:52:10;13.33;;;2.53;;
20832;SDS011;56075;51.264;7.150;2023-02-24T09:58:11;12.37;;;3.00;;
20832;SDS011;56075;51.264;7.150;2023-02-24T10:13:51;10.87;;;1.80;;
20832;SDS011;56075;51.264;7.150;2023-02-24T10:20:43;11.80;;;2.30;;
20832;SDS011;56075;51.264;7.150;2023-02-24T10:24:15;11.80;;;1.67;;
20832;SDS011;56075;51.264;7.150;2023-02-24T10:26:46;10.70;;;1.87;;
20832;SDS011;56075;51.264;7.150;2023-02-24T10:35:12;10.57;;;1.97;;
20832;SDS011;56075;51.264;7.150;2023-02-24T10:37:46;13.00;;;1.70;;
20832;SDS011;56075;51.264;7.150;2023-02-24T10:40:19;17.90;;;1.97;;
20832;SDS011;56075;51.264;7.150;2023-02-24T10:43:17;10.03;;;1.73;;
20832;SDS011;56075;51.264;7.150;2023-02-24T10:46:00;11.63;;;1.67;;
20832;SDS011;56075;51.264;7.150;2023-02-24T10:48:35;13.23;;;1.60;;
20832;SDS011;56075;51.264;7.150;2023-02-24T10:51:11;12.13;;;1.83;;
20832;SDS011;56075;51.264;7.150;2023-02-24T10:54:04;11.33;;;1.80;;
20832;SDS011;56075;51.264;7.150;2023-02-24T10:56:51;9.93;;;1.67;;
20832;SDS011;56075;51.264;7.150;2023-02-24T10:59:46;12.63;;;1.70;;
20832;SDS011;56075;51.264;7.150;2023-02-24T11:02:37;11.30;;;1.70;;
20832;SDS011;56075;51.264;7.150;2023-02-24T11:05:26;9.63;;;1.70;;
20832;SDS011;56075;51.264;7.150;2023-02-24T11:08:15;7.47;;;1.43;;
20832;SDS011;56075;51.264;7.150;2023-02-24T11:11:08;14.50;;;2.03;;
20832;SDS011;56075;51.264;7.150;2023-02-24T11:13:49;10.43;;;2.10;;
20832;SDS011;56075;51.264;7.150;2023-02-24T11:16:44;13.13;;;2.23;;
20832;SDS011;56075;51.264;7.150;2023-02-24T11:22:42;17.53;;;3.13;;
20832;SDS011;56075;51.264;7.150;2023-02-24T11:25:21;11.23;;;2.80;;
20832;SDS011;56075;51.264;7.150;2023-02-24T11:27:57;12.93;;;3.27;;
20832;SDS011;56075;51.264;7.150;2023-02-24T11:36:36;16.60;;;3.80;;
20832;SDS011;56075;51.264;7.150;2023-02-24T11:41:54;17.80;;;4.40;;
20832;SDS011;56075;51.264;7.150;2023-02-24T11:44:29;23.13;;;4.80;;
20832;SDS011;56075;51.264;7.150;2023-02-24T11:47:05;19.03;;;5.10;;
20832;SDS011;56075;51.264;7.150;2023-02-24T11:49:40;19.47;;;4.97;;
20832;SDS011;56075;51.264;7.150;2023-02-24T11:52:14;16.77;;;4.03;;
20832;SDS011;56075;51.264;7.150;2023-02-24T11:54:48;17.33;;;5.10;;
20832;SDS011;56075;51.264;7.150;2023-02-24T11:57:31;23.43;;;5.43;;
20832;SDS011;56075;51.264;7.150;2023-02-24T12:00:17;16.23;;;5.33;;
20832;SDS011;56075;51.264;7.150;2023-02-24T12:05:32;27.87;;;5.03;;
20832;SDS011;56075;51.264;7.150;2023-02-24T12:08:20;21.03;;;4.37;;
20832;SDS011;56075;51.264;7.150;2023-02-24T12:11:00;23.37;;;5.37;;
20832;SDS011;56075;51.264;7.150;2023-02-24T12:13:51;17.00;;;4.57;;
20832;SDS011;56075;51.264;7.150;2023-02-24T12:16:28;18.80;;;4.40;;
20832;SDS011;56075;51.264;7.150;2023-02-24T12:19:10;18.10;;;5.00;;
20832;SDS011;56075;51.264;7.150;2023-02-24T12:21:46;20.87;;;5.57;;
20832;SDS011;56075;51.264;7.150;2023-02-24T12:24:19;23.97;;;5.07;;
20832;SDS011;56075;51.264;7.150;2023-02-24T12:32:29;19.40;;;5.93;;
20832;SDS011;56075;51.264;7.150;2023-02-24T12:35:14;13.93;;;5.20;;
20832;SDS011;56075;51.264;7.150;2023-02-24T12:40:41;21.20;;;5.20;;
20832;SDS011;56075;51.264;7.150;2023-02-24T12:43:22;21.50;;;4.87;;
20832;SDS011;56075;51.264;7.150;2023-02-24T12:46:08;17.17;;;5.43;;
20832;SDS011;56075;51.264;7.150;2023-02-24T12:51:49;22.93;;;6.57;;
20832;SDS011;56075;51.264;7.150;2023-02-24T12:54:28;24.67;;;6.43;;
20832;SDS011;56075;51.264;7.150;2023-02-24T12:59:38;26.30;;;7.67;;
20832;SDS011;56075;51.264;7.150;2023-02-24T13:13:03;24.50;;;8.50;;
20832;SDS011;56075;51.264;7.150;2023-02-24T13:15:35;32.70;;;8.23;;
20832;SDS011;56075;51.264;7.150;2023-02-24T13:18:08;26.53;;;7.53;;
20832;SDS011;56075;51.264;7.150;2023-02-24T13:20:40;24.87;;;8.17;;
20832;SDS011;56075;51.264;7.150;2023-02-24T13:23:19;21.70;;;8.07;;
20832;SDS011;56075;51.264;7.150;2023-02-24T13:25:51;31.80;;;7.63;;
20832;SDS011;56075;51.264;7.150;2023-02-24T13:28:41;27.30;;;7.87;;
20832;SDS011;56075;51.264;7.150;2023-02-24T13:31:13;31.70;;;8.67;;
20832;SDS011;56075;51.264;7.150;2023-02-24T13:33:44;24.77;;;8.90;;
20832;SDS011;56075;51.264;7.150;2023-02-24T13:36:19;31.73;;;8.37;;
20832;SDS011;56075;51.264;7.150;2023-02-24T13:39:02;26.60;;;9.93;;
20832;SDS011;56075;51.264;7.150;2023-02-24T13:41:35;25.73;;;8.83;;
20832;SDS011;56075;51.264;7.150;2023-02-24T13:47:04;27.00;;;9.17;;
20832;SDS011;56075;51.264;7.150;2023-02-24T13:55:23;30.70;;;9.13;;
20832;SDS011;56075;51.264;7.150;2023-02-24T13:58:05;29.87;;;9.00;;
20832;SDS011;56075;51.264;7.150;2023-02-24T14:00:55;29.20;;;8.80;;
20832;SDS011;56075;51.264;7.150;2023-02-24T14:03:29;21.20;;;6.83;;
20832;SDS011;56075;51.264;7.150;2023-02-24T14:06:02;23.93;;;8.30;;
20832;SDS011;56075;51.264;7.150;2023-02-24T14:08:43;24.43;;;7.90;;
20832;SDS011;56075;51.264;7.150;2023-02-24T14:11:16;22.33;;;7.50;;
20832;SDS011;56075;51.264;7.150;2023-02-24T14:13:51;20.67;;;7.93;;
20832;SDS011;56075;51.264;7.150;2023-02-24T14:16:25;17.30;;;6.80;;
20832;SDS011;56075;51.264;7.150;2023-02-24T14:18:58;25.13;;;8.00;;
20832;SDS011;56075;51.264;7.150;2023-02-24T14:21:33;23.03;;;8.30;;
20832;SDS011;56075;51.264;7.150;2023-02-24T14:24:11;24.07;;;8.60;;
20832;SDS011;56075;51.264;7.150;2023-02-24T14:26:46;20.53;;;8.27;;
20832;SDS011;56075;51.264;7.150;2023-02-24T14:29:23;28.90;;;8.57;;
20832;SDS011;56075;51.264;7.150;2023-02-24T14:31:55;28.67;;;9.57;;
20832;SDS011;56075;51.264;7.150;2023-02-24T14:34:28;25.27;;;8.37;;
20832;SDS011;56075;51.264;7.150;2023-02-24T14:37:01;29.03;;;9.03;;
20832;SDS011;56075;51.264;7.150;2023-02-24T14:39:33;23.83;;;8.10;;
20832;SDS011;56075;51.264;7.150;2023-02-24T14:42:12;24.03;;;7.77;;
20832;SDS011;56075;51.264;7.150;2023-02-24T14:44:49;25.90;;;7.70;;
20832;SDS011;56075;51.264;7.150;2023-02-24T14:47:22;20.53;;;7.60;;
20832;SDS011;56075;51.264;7.150;2023-02-24T14:49:58;32.23;;;8.07;;
20832;SDS011;56075;51.264;7.150;2023-02-24T14:55:22;19.27;;;7.43;;
20832;SDS011;56075;51.264;7.150;2023-02-24T14:57:56;27.13;;;8.17;;
20832;SDS011;56075;51.264;7.150;2023-02-24T15:00:30;21.53;;;7.33;;
20832;SDS011;56075;51.264;7.150;2023-02-24T15:03:12;23.20;;;7.13;;
20832;SDS011;56075;51.264;7.150;2023-02-24T15:05:47;33.27;;;8.73;;
20832;SDS011;56075;51.264;7.150;2023-02-24T15:08:36;24.33;;;7.17;;
20832;SDS011;56075;51.264;7.150;2023-02-24T15:13:50;31.70;;;8.10;;
20832;SDS011;56075;51.264;7.150;2023-02-24T15:16:27;25.00;;;8.30;;
20832;SDS011;56075;51.264;7.150;2023-02-24T15:18:59;28.17;;;8.03;;
20832;SDS011;56075;51.264;7.150;2023-02-24T15:21:32;22.83;;;8.33;;
20832;SDS011;56075;51.264;7.150;2023-02-24T15:24:25;29.60;;;9.20;;
20832;SDS011;56075;51.264;7.150;2023-02-24T15:26:59;26.17;;;8.13;;
20832;SDS011;56075;51.264;7.150;2023-02-24T15:29:31;23.43;;;7.07;;
20832;SDS011;56075;51.264;7.150;2023-02-24T15:32:03;32.43;;;8.77;;
20832;SDS011;56075;51.264;7.150;2023-02-24T15:34:37;22.40;;;7.87;;
20832;SDS011;56075;51.264;7.150;2023-02-24T15:37:13;29.60;;;7.90;;
20832;SDS011;56075;51.264;7.150;2023-02-24T15:39:45;32.60;;;8.03;;
20832;SDS011;56075;51.264;7.150;2023-02-24T15:42:25;31.77;;;8.23;;
20832;SDS011;56075;51.264;7.150;2023-02-24T15:44:59;36.03;;;9.10;;
20832;SDS011;56075;51.264;7.150;2023-02-24T15:47:41;32.60;;;8.47;;
20832;SDS011;56075;51.264;7.150;2023-02-24T15:50:13;34.30;;;9.00;;
20832;SDS011;56075;51.264;7.150;2023-02-24T15:52:44;36.27;;;9.40;;
20832;SDS011;56075;51.264;7.150;2023-02-24T15:55:17;27.60;;;8.27;;
20832;SDS011;56075;51.264;7.150;2023-02-24T15:57:54;32.93;;;8.50;;
20832;SDS011;56075;51.264;7.150;2023-02-24T16:00:26;29.50;;;9.53;;
20832;SDS011;56075;51.264;7.150;2023-02-24T16:02:58;34.27;;;9.47;;
20832;SDS011;56075;51.264;7.150;2023-02-24T16:05:29;23.10;;;9.13;;
20832;SDS011;56075;51.264;7.150;2023-02-24T16:08:01;30.03;;;8.80;;
20832;SDS011;56075;51.264;7.150;2023-02-24T16:10:32;33.13;;;9.10;;
20832;SDS011;56075;51.264;7.150;2023-02-24T16:13:03;32.20;;;11.40;;
20832;SDS011;56075;51.264;7.150;2023-02-24T16:15:35;37.20;;;10.20;;
20832;SDS011;56075;51.264;7.150;2023-02-24T16:18:12;36.07;;;9.70;;
20832;SDS011;56075;51.264;7.150;2023-02-24T16:20:48;26.93;;;8.90;;
20832;SDS011;56075;51.264;7.150;2023-02-24T16:23:24;25.53;;;9.73;;
20832;SDS011;56075;51.264;7.150;2023-02-24T16:25:56;24.67;;;9.73;;
20832;SDS011;56075;51.264;7.150;2023-02-24T16:28:29;29.03;;;10.60;;
20832;SDS011;56075;51.264;7.150;2023-02-24T16:31:01;29.03;;;11.27;;
20832;SDS011;56075;51.264;7.150;2023-02-24T16:33:33;32.47;;;12.10;;
20832;SDS011;56075;51.264;7.150;2023-02-24T16:36:08;37.90;;;12.10;;
20832;SDS011;56075;51.264;7.150;2023-02-24T16:38:41;32.53;;;11.80;;
20832;SDS011;56075;51.264;7.150;2023-02-24T16:41:13;30.10;;;10.83;;
20832;SDS011;56075;51.264;7.150;2023-02-24T16:43:44;30.97;;;11.70;;
20832;SDS011;56075;51.264;7.150;2023-02-24T16:46:16;31.00;;;11.27;;
20832;SDS011;56075;51.264;7.150;2023-02-24T16:48:49;33.63;;;11.27;;
20832;SDS011;56075;51.264;7.150;2023-02-24T16:51:22;28.53;;;10.10;;
20832;SDS011;56075;51.264;7.150;2023-02-24T16:53:54;27.90;;;10.23;;
20832;SDS011;56075;51.264;7.150;2023-02-24T16:56:25;22.73;;;9.03;;
20832;SDS011;56075;51.264;7.150;2023-02-24T16:58:56;22.33;;;8.13;;
20832;SDS011;56075;51.264;7.150;2023-02-24T17:01:28;23.73;;;9.03;;
20832;SDS011;56075;51.264;7.150;2023-02-24T17:03:59;20.73;;;7.87;;
20832;SDS011;56075;51.264;7.150;2023-02-24T17:06:33;15.00;;;5.63;;
20832;SDS011;56075;51.264;7.150;2023-02-24T17:09:05;16.77;;;6.17;;
20832;SDS011;56075;51.264;7.150;2023-02-24T17:11:36;14.00;;;5.73;;
20832;SDS011;56075;51.264;7.150;2023-02-24T17:14:15;22.13;;;7.53;;
20832;SDS011;56075;51.264;7.150;2023-02-24T17:16:46;17.77;;;8.10;;
20832;SDS011;56075;51.264;7.150;2023-02-24T17:19:18;21.97;;;8.67;;
20832;SDS011;56075;51.264;7.150;2023-02-24T17:21:49;22.07;;;9.13;;
20832;SDS011;56075;51.264;7.150;2023-02-24T17:24:21;25.47;;;9.97;;
20832;SDS011;56075;51.264;7.150;2023-02-24T17:26:52;27.43;;;10.17;;